sensor_id;sensor_type;location;lat;lon;timestamp;P1;durP1;ratioP1;P2;durP2;ratioP2
27383;SDS011;14851;51.166;4.760;2022-11-24T00:01:25;19.05;;;4.03;;
27383;SDS011;14851;51.166;4.760;2022-11-24T00:03:58;19.88;;;4.20;;
27383;SDS011;14851;51.166;4.760;2022-11-24T00:06:25;15.60;;;4.18;;
27383;SDS011;14851;51.166;4.760;2022-11-24T00:08:57;19.67;;;4.78;;
27383;SDS011;14851;51.166;4.760;2022-11-24T00:11:27;20.15;;;3.85;;
27383;SDS011;14851;51.166;4.760;2022-11-24T00:13:55;20.08;;;4.38;;
27383;SDS011;14851;51.166;4.760;2022-11-24T00:16:23;20.73;;;5.50;;
27383;SDS011;14851;51.166;4.760;2022-11-24T00:18:51;16.15;;;4.40;;
27383;SDS011;14851;51.166;4.760;2022-11-24T00:21:19;18.92;;;3.80;;
27383;SDS011;14851;51.166;4.760;2022-11-24T00:23:47;20.48;;;6.35;;
27383;SDS011;14851;51.166;4.760;2022-11-24T00:26:14;18.95;;;4.68;;
27383;SDS011;14851;51.166;4.760;2022-11-24T00:28:46;21.70;;;5.07;;
27383;SDS011;14851;51.166;4.760;2022-11-24T00:31:22;21.13;;;4.18;;
27383;SDS011;14851;51.166;4.760;2022-11-24T00:33:50;21.92;;;5.75;;
27383;SDS011;14851;51.166;4.760;2022-11-24T00:36:18;18.55;;;5.03;;
27383;SDS011;14851;51.166;4.760;2022-11-24T00:38:46;21.55;;;4.65;;
27383;SDS011;14851;51.166;4.760;2022-11-24T00:41:13;19.00;;;3.30;;
27383;SDS011;14851;51.166;4.760;2022-11-24T00:43:39;19.10;;;3.58;;
27383;SDS011;14851;51.166;4.760;2022-11-24T00:46:08;19.15;;;4.10;;
27383;SDS011;14851;51.166;4.760;2022-11-24T00:48:35;20.42;;;4.28;;
27383;SDS011;14851;51.166;4.760;2022-11-24T00:51:02;20.05;;;4.75;;
27383;SDS011;14851;51.166;4.760;2022-11-24T00:53:30;24.52;;;4.78;;
27383;SDS011;14851;51.166;4.760;2022-11-24T00:55:57;16.13;;;3.92;;
27383;SDS011;14851;51.166;4.760;2022-11-24T00:58:24;22.13;;;5.28;;
27383;SDS011;14851;51.166;4.760;2022-11-24T01:00:50;27.90;;;4.97;;
27383;SDS011;14851;51.166;4.760;2022-11-24T01:03:18;16.08;;;3.20;;
27383;SDS011;14851;51.166;4.760;2022-11-24T01:05:47;18.13;;;4.05;;
27383;SDS011;14851;51.166;4.760;2022-11-24T01:08:13;15.80;;;4.07;;
27383;SDS011;14851;51.166;4.760;2022-11-24T01:10:41;22.80;;;4.78;;
27383;SDS011;14851;51.166;4.760;2022-11-24T01:13:08;21.45;;;3.75;;
27383;SDS011;14851;51.166;4.760;2022-11-24T01:15:36;15.82;;;3.47;;
27383;SDS011;14851;51.166;4.760;2022-11-24T01:18:09;18.23;;;3.63;;
27383;SDS011;14851;51.166;4.760;2022-11-24T01:20:36;20.85;;;3.50;;
27383;SDS011;14851;51.166;4.760;2022-11-24T01:23:02;21.23;;;4.47;;
27383;SDS011;14851;51.166;4.760;2022-11-24T01:25:28;20.20;;;3.45;;
27383;SDS011;14851;51.166;4.760;2022-11-24T01:27:55;19.75;;;3.45;;
27383;SDS011;14851;51.166;4.760;2022-11-24T01:30:21;19.38;;;3.58;;
27383;SDS011;14851;51.166;4.760;2022-11-24T01:32:47;21.65;;;3.90;;
27383;SDS011;14851;51.166;4.760;2022-11-24T01:35:14;20.35;;;4.22;;
27383;SDS011;14851;51.166;4.760;2022-11-24T01:37:39;24.30;;;4.53;;
27383;SDS011;14851;51.166;4.760;2022-11-24T01:40:05;17.00;;;3.00;;
27383;SDS011;14851;51.166;4.760;2022-11-24T01:42:36;27.33;;;4.30;;
27383;SDS011;14851;51.166;4.760;2022-11-24T01:45:33;18.85;;;3.45;;
27383;SDS011;14851;51.166;4.760;2022-11-24T01:48:00;32.60;;;4.95;;
27383;SDS011;14851;51.166;4.760;2022-11-24T01:50:30;20.75;;;4.07;;
27383;SDS011;14851;51.166;4.760;2022-11-24T01:52:57;20.98;;;3.72;;
27383;SDS011;14851;51.166;4.760;2022-11-24T01:55:26;23.88;;;4.88;;
27383;SDS011;14851;51.166;4.760;2022-11-24T01:57:58;24.90;;;3.65;;
27383;SDS011;14851;51.166;4.760;2022-11-24T02:00:37;21.83;;;3.78;;
27383;SDS011;14851;51.166;4.760;2022-11-24T02:03:07;25.00;;;3.95;;
27383;SDS011;14851;51.166;4.760;2022-11-24T02:05:42;27.88;;;4.55;;
27383;SDS011;14851;51.166;4.760;2022-11-24T02:08:19;29.27;;;5.95;;
27383;SDS011;14851;51.166;4.760;2022-11-24T02:10:50;25.08;;;4.45;;
27383;SDS011;14851;51.166;4.760;2022-11-24T02:13:16;26.88;;;5.07;;
27383;SDS011;14851;51.166;4.760;2022-11-24T02:15:42;29.92;;;5.10;;
27383;SDS011;14851;51.166;4.760;2022-11-24T02:18:09;18.83;;;3.92;;
27383;SDS011;14851;51.166;4.760;2022-11-24T02:20:35;30.00;;;4.82;;
27383;SDS011;14851;51.166;4.760;2022-11-24T02:23:04;21.13;;;3.88;;
27383;SDS011;14851;51.166;4.760;2022-11-24T02:28:28;27.02;;;4.75;;
27383;SDS011;14851;51.166;4.760;2022-11-24T02:30:56;25.73;;;5.00;;
27383;SDS011;14851;51.166;4.760;2022-11-24T02:33:26;22.92;;;4.15;;
27383;SDS011;14851;51.166;4.760;2022-11-24T02:35:52;30.40;;;4.43;;
27383;SDS011;14851;51.166;4.760;2022-11-24T02:38:27;19.35;;;4.38;;
27383;SDS011;14851;51.166;4.760;2022-11-24T02:40:56;26.40;;;4.20;;
27383;SDS011;14851;51.166;4.760;2022-11-24T02:43:33;22.65;;;4.07;;
27383;SDS011;14851;51.166;4.760;2022-11-24T02:46:04;25.48;;;4.72;;
27383;SDS011;14851;51.166;4.760;2022-11-24T02:48:31;22.20;;;4.25;;
27383;SDS011;14851;51.166;4.760;2022-11-24T02:50:57;32.63;;;4.65;;
27383;SDS011;14851;51.166;4.760;2022-11-24T02:53:23;20.63;;;4.47;;
27383;SDS011;14851;51.166;4.760;2022-11-24T02:55:49;25.45;;;4.55;;
27383;SDS011;14851;51.166;4.760;2022-11-24T02:58:16;29.48;;;4.47;;
27383;SDS011;14851;51.166;4.760;2022-11-24T03:00:45;27.00;;;4.30;;
27383;SDS011;14851;51.166;4.760;2022-11-24T03:03:11;16.90;;;3.92;;
27383;SDS011;14851;51.166;4.760;2022-11-24T03:05:40;22.10;;;4.72;;
27383;SDS011;14851;51.166;4.760;2022-11-24T03:08:07;24.58;;;4.75;;
27383;SDS011;14851;51.166;4.760;2022-11-24T03:10:33;22.75;;;5.18;;
27383;SDS011;14851;51.166;4.760;2022-11-24T03:12:59;24.38;;;4.47;;
27383;SDS011;14851;51.166;4.760;2022-11-24T03:15:26;29.52;;;4.85;;
27383;SDS011;14851;51.166;4.760;2022-11-24T03:17:54;26.73;;;4.50;;
27383;SDS011;14851;51.166;4.760;2022-11-24T03:20:23;23.97;;;3.97;;
27383;SDS011;14851;51.166;4.760;2022-11-24T03:22:51;20.80;;;3.65;;
27383;SDS011;14851;51.166;4.760;2022-11-24T03:25:17;23.15;;;4.60;;
27383;SDS011;14851;51.166;4.760;2022-11-24T03:27:44;27.30;;;4.47;;
27383;SDS011;14851;51.166;4.760;2022-11-24T03:30:10;24.08;;;4.50;;
27383;SDS011;14851;51.166;4.760;2022-11-24T03:32:37;22.60;;;4.25;;
27383;SDS011;14851;51.166;4.760;2022-11-24T03:35:03;21.90;;;3.70;;
27383;SDS011;14851;51.166;4.760;2022-11-24T03:37:30;19.88;;;4.28;;
27383;SDS011;14851;51.166;4.760;2022-11-24T03:39:57;25.70;;;4.05;;
27383;SDS011;14851;51.166;4.760;2022-11-24T03:42:25;26.33;;;3.45;;
27383;SDS011;14851;51.166;4.760;2022-11-24T03:44:54;17.58;;;3.70;;
27383;SDS011;14851;51.166;4.760;2022-11-24T03:47:21;20.83;;;3.42;;
27383;SDS011;14851;51.166;4.760;2022-11-24T03:49:49;22.55;;;3.67;;
27383;SDS011;14851;51.166;4.760;2022-11-24T03:52:17;31.60;;;4.57;;
27383;SDS011;14851;51.166;4.760;2022-11-24T03:54:43;18.00;;;3.60;;
27383;SDS011;14851;51.166;4.760;2022-11-24T03:57:12;27.02;;;4.30;;
27383;SDS011;14851;51.166;4.760;2022-11-24T03:59:37;21.75;;;3.95;;
27383;SDS011;14851;51.166;4.760;2022-11-24T04:02:04;19.00;;;3.45;;
27383;SDS011;14851;51.166;4.760;2022-11-24T04:04:30;22.58;;;4.05;;
27383;SDS011;14851;51.166;4.760;2022-11-24T04:06:58;16.17;;;3.53;;
27383;SDS011;14851;51.166;4.760;2022-11-24T04:09:24;18.70;;;3.45;;
27383;SDS011;14851;51.166;4.760;2022-11-24T04:11:52;20.55;;;3.60;;
27383;SDS011;14851;51.166;4.760;2022-11-24T04:14:37;18.58;;;3.78;;
27383;SDS011;14851;51.166;4.760;2022-11-24T04:17:03;16.70;;;2.75;;
27383;SDS011;14851;51.166;4.760;2022-11-24T04:19:31;20.75;;;3.60;;
27383;SDS011;14851;51.166;4.760;2022-11-24T04:21:58;18.83;;;2.85;;
27383;SDS011;14851;51.166;4.760;2022-11-24T04:24:24;23.65;;;3.83;;
27383;SDS011;14851;51.166;4.760;2022-11-24T04:26:51;17.63;;;4.35;;
27383;SDS011;14851;51.166;4.760;2022-11-24T04:29:17;17.45;;;3.45;;
27383;SDS011;14851;51.166;4.760;2022-11-24T04:31:47;21.00;;;3.45;;
27383;SDS011;14851;51.166;4.760;2022-11-24T04:34:13;14.52;;;3.47;;
27383;SDS011;14851;51.166;4.760;2022-11-24T04:36:39;15.02;;;2.92;;
27383;SDS011;14851;51.166;4.760;2022-11-24T04:39:05;19.30;;;3.15;;
27383;SDS011;14851;51.166;4.760;2022-11-24T04:41:31;16.88;;;3.50;;
27383;SDS011;14851;51.166;4.760;2022-11-24T04:43:57;17.77;;;4.28;;
27383;SDS011;14851;51.166;4.760;2022-11-24T04:46:25;16.05;;;6.00;;
27383;SDS011;14851;51.166;4.760;2022-11-24T04:48:51;13.80;;;2.33;;
27383;SDS011;14851;51.166;4.760;2022-11-24T04:51:17;18.13;;;2.72;;
27383;SDS011;14851;51.166;4.760;2022-11-24T04:53:44;13.40;;;2.40;;
27383;SDS011;14851;51.166;4.760;2022-11-24T04:56:12;8.98;;;2.30;;
27383;SDS011;14851;51.166;4.760;2022-11-24T04:58:38;9.77;;;1.95;;
27383;SDS011;14851;51.166;4.760;2022-11-24T05:01:06;9.40;;;2.15;;
27383;SDS011;14851;51.166;4.760;2022-11-24T05:03:34;10.60;;;2.55;;
27383;SDS011;14851;51.166;4.760;2022-11-24T05:06:01;7.03;;;1.50;;
27383;SDS011;14851;51.166;4.760;2022-11-24T05:08:28;6.47;;;1.55;;
27383;SDS011;14851;51.166;4.760;2022-11-24T05:10:54;12.25;;;2.30;;
27383;SDS011;14851;51.166;4.760;2022-11-24T05:13:21;7.75;;;2.63;;
27383;SDS011;14851;51.166;4.760;2022-11-24T05:15:47;11.02;;;2.92;;
27383;SDS011;14851;51.166;4.760;2022-11-24T05:18:17;8.10;;;2.60;;
27383;SDS011;14851;51.166;4.760;2022-11-24T05:20:43;7.80;;;2.28;;
27383;SDS011;14851;51.166;4.760;2022-11-24T05:23:13;5.80;;;1.52;;
27383;SDS011;14851;51.166;4.760;2022-11-24T05:25:40;5.68;;;1.30;;
27383;SDS011;14851;51.166;4.760;2022-11-24T05:28:07;10.75;;;1.55;;
27383;SDS011;14851;51.166;4.760;2022-11-24T05:30:37;8.18;;;1.70;;
27383;SDS011;14851;51.166;4.760;2022-11-24T05:33:14;5.15;;;1.30;;
27383;SDS011;14851;51.166;4.760;2022-11-24T05:35:43;7.10;;;1.30;;
27383;SDS011;14851;51.166;4.760;2022-11-24T05:38:16;5.22;;;1.40;;
27383;SDS011;14851;51.166;4.760;2022-11-24T05:40:45;2.13;;;0.93;;
27383;SDS011;14851;51.166;4.760;2022-11-24T05:43:15;5.40;;;1.23;;
27383;SDS011;14851;51.166;4.760;2022-11-24T05:45:42;7.45;;;1.77;;
27383;SDS011;14851;51.166;4.760;2022-11-24T05:48:09;5.30;;;1.52;;
27383;SDS011;14851;51.166;4.760;2022-11-24T05:50:38;4.30;;;1.08;;
27383;SDS011;14851;51.166;4.760;2022-11-24T05:53:06;4.25;;;1.17;;
27383;SDS011;14851;51.166;4.760;2022-11-24T05:55:37;6.28;;;1.25;;
27383;SDS011;14851;51.166;4.760;2022-11-24T05:58:05;6.35;;;1.20;;
27383;SDS011;14851;51.166;4.760;2022-11-24T06:00:33;5.25;;;1.30;;
27383;SDS011;14851;51.166;4.760;2022-11-24T06:03:00;7.00;;;1.08;;
27383;SDS011;14851;51.166;4.760;2022-11-24T06:05:27;5.60;;;1.48;;
27383;SDS011;14851;51.166;4.760;2022-11-24T06:07:57;6.93;;;1.63;;
27383;SDS011;14851;51.166;4.760;2022-11-24T06:10:24;8.65;;;1.30;;
27383;SDS011;14851;51.166;4.760;2022-11-24T06:12:53;6.07;;;1.42;;
27383;SDS011;14851;51.166;4.760;2022-11-24T06:15:21;7.60;;;1.77;;
27383;SDS011;14851;51.166;4.760;2022-11-24T06:17:53;5.00;;;1.38;;
27383;SDS011;14851;51.166;4.760;2022-11-24T06:20:21;9.77;;;1.48;;
27383;SDS011;14851;51.166;4.760;2022-11-24T06:22:49;5.93;;;1.38;;
27383;SDS011;14851;51.166;4.760;2022-11-24T06:25:16;8.40;;;1.50;;
27383;SDS011;14851;51.166;4.760;2022-11-24T06:27:43;7.15;;;1.50;;
27383;SDS011;14851;51.166;4.760;2022-11-24T06:30:11;5.22;;;1.75;;
27383;SDS011;14851;51.166;4.760;2022-11-24T06:32:43;8.80;;;2.03;;
27383;SDS011;14851;51.166;4.760;2022-11-24T06:35:11;7.90;;;1.52;;
27383;SDS011;14851;51.166;4.760;2022-11-24T06:37:38;7.60;;;1.35;;
27383;SDS011;14851;51.166;4.760;2022-11-24T06:40:05;10.07;;;1.60;;
27383;SDS011;14851;51.166;4.760;2022-11-24T06:42:35;5.65;;;1.42;;
27383;SDS011;14851;51.166;4.760;2022-11-24T06:45:09;6.13;;;1.83;;
27383;SDS011;14851;51.166;4.760;2022-11-24T06:47:39;7.22;;;1.60;;
27383;SDS011;14851;51.166;4.760;2022-11-24T06:50:06;7.57;;;1.80;;
27383;SDS011;14851;51.166;4.760;2022-11-24T06:52:34;10.00;;;1.50;;
27383;SDS011;14851;51.166;4.760;2022-11-24T06:55:02;7.78;;;1.48;;
27383;SDS011;14851;51.166;4.760;2022-11-24T06:57:29;10.73;;;1.98;;
27383;SDS011;14851;51.166;4.760;2022-11-24T06:59:58;13.07;;;2.22;;
27383;SDS011;14851;51.166;4.760;2022-11-24T07:02:26;5.68;;;1.20;;
27383;SDS011;14851;51.166;4.760;2022-11-24T07:04:56;11.27;;;2.03;;
27383;SDS011;14851;51.166;4.760;2022-11-24T07:07:23;13.70;;;4.30;;
27383;SDS011;14851;51.166;4.760;2022-11-24T07:09:49;9.50;;;2.33;;
27383;SDS011;14851;51.166;4.760;2022-11-24T07:12:19;10.43;;;2.17;;
27383;SDS011;14851;51.166;4.760;2022-11-24T07:14:50;12.07;;;2.47;;
27383;SDS011;14851;51.166;4.760;2022-11-24T07:17:19;8.05;;;3.78;;
27383;SDS011;14851;51.166;4.760;2022-11-24T07:19:45;7.05;;;2.40;;
27383;SDS011;14851;51.166;4.760;2022-11-24T07:22:14;8.90;;;2.55;;
27383;SDS011;14851;51.166;4.760;2022-11-24T07:24:41;16.70;;;3.35;;
27383;SDS011;14851;51.166;4.760;2022-11-24T07:27:10;14.60;;;3.00;;
27383;SDS011;14851;51.166;4.760;2022-11-24T07:29:36;12.85;;;3.22;;
27383;SDS011;14851;51.166;4.760;2022-11-24T07:32:07;9.90;;;2.83;;
27383;SDS011;14851;51.166;4.760;2022-11-24T07:34:33;10.43;;;2.65;;
27383;SDS011;14851;51.166;4.760;2022-11-24T07:37:01;10.43;;;2.95;;
27383;SDS011;14851;51.166;4.760;2022-11-24T07:39:27;11.68;;;2.90;;
27383;SDS011;14851;51.166;4.760;2022-11-24T07:41:53;12.82;;;2.78;;
27383;SDS011;14851;51.166;4.760;2022-11-24T07:44:28;12.05;;;3.63;;
27383;SDS011;14851;51.166;4.760;2022-11-24T07:46:53;14.10;;;3.20;;
27383;SDS011;14851;51.166;4.760;2022-11-24T07:49:23;17.88;;;3.30;;
27383;SDS011;14851;51.166;4.760;2022-11-24T07:51:49;9.75;;;2.60;;
27383;SDS011;14851;51.166;4.760;2022-11-24T07:54:14;12.75;;;3.03;;
27383;SDS011;14851;51.166;4.760;2022-11-24T07:56:41;16.23;;;3.38;;
27383;SDS011;14851;51.166;4.760;2022-11-24T07:59:09;11.98;;;3.50;;
27383;SDS011;14851;51.166;4.760;2022-11-24T08:01:40;17.90;;;3.90;;
27383;SDS011;14851;51.166;4.760;2022-11-24T08:04:06;12.77;;;3.17;;
27383;SDS011;14851;51.166;4.760;2022-11-24T08:06:39;14.60;;;2.80;;
27383;SDS011;14851;51.166;4.760;2022-11-24T08:09:05;14.93;;;3.05;;
27383;SDS011;14851;51.166;4.760;2022-11-24T08:11:31;16.58;;;3.05;;
27383;SDS011;14851;51.166;4.760;2022-11-24T08:14:00;16.50;;;3.40;;
27383;SDS011;14851;51.166;4.760;2022-11-24T08:16:26;12.38;;;2.65;;
27383;SDS011;14851;51.166;4.760;2022-11-24T08:18:55;9.75;;;2.80;;
27383;SDS011;14851;51.166;4.760;2022-11-24T08:21:21;11.82;;;2.55;;
27383;SDS011;14851;51.166;4.760;2022-11-24T08:23:54;10.40;;;2.63;;
27383;SDS011;14851;51.166;4.760;2022-11-24T08:26:32;16.15;;;4.45;;
27383;SDS011;14851;51.166;4.760;2022-11-24T08:28:59;14.65;;;5.15;;
27383;SDS011;14851;51.166;4.760;2022-11-24T08:31:27;15.82;;;3.40;;
27383;SDS011;14851;51.166;4.760;2022-11-24T08:33:58;14.68;;;2.45;;
27383;SDS011;14851;51.166;4.760;2022-11-24T08:36:25;12.55;;;3.30;;
27383;SDS011;14851;51.166;4.760;2022-11-24T08:38:55;13.65;;;2.97;;
27383;SDS011;14851;51.166;4.760;2022-11-24T08:41:25;12.95;;;3.08;;
27383;SDS011;14851;51.166;4.760;2022-11-24T08:43:52;17.30;;;2.70;;
27383;SDS011;14851;51.166;4.760;2022-11-24T08:46:21;11.90;;;3.10;;
27383;SDS011;14851;51.166;4.760;2022-11-24T08:48:51;12.80;;;2.33;;
27383;SDS011;14851;51.166;4.760;2022-11-24T08:51:22;15.05;;;3.15;;
27383;SDS011;14851;51.166;4.760;2022-11-24T08:53:58;15.45;;;3.08;;
27383;SDS011;14851;51.166;4.760;2022-11-24T08:56:27;14.55;;;2.63;;
27383;SDS011;14851;51.166;4.760;2022-11-24T08:58:55;12.82;;;2.10;;
27383;SDS011;14851;51.166;4.760;2022-11-24T09:01:22;10.23;;;1.95;;
27383;SDS011;14851;51.166;4.760;2022-11-24T09:03:51;13.45;;;2.70;;
27383;SDS011;14851;51.166;4.760;2022-11-24T09:06:19;10.13;;;2.40;;
27383;SDS011;14851;51.166;4.760;2022-11-24T09:08:47;12.13;;;2.20;;
27383;SDS011;14851;51.166;4.760;2022-11-24T09:11:14;7.88;;;1.67;;
27383;SDS011;14851;51.166;4.760;2022-11-24T09:13:42;18.67;;;5.90;;
27383;SDS011;14851;51.166;4.760;2022-11-24T09:16:09;14.82;;;2.70;;
27383;SDS011;14851;51.166;4.760;2022-11-24T09:18:53;12.75;;;2.95;;
27383;SDS011;14851;51.166;4.760;2022-11-24T09:21:27;12.80;;;2.58;;
27383;SDS011;14851;51.166;4.760;2022-11-24T09:23:55;10.30;;;2.28;;
27383;SDS011;14851;51.166;4.760;2022-11-24T09:26:26;11.18;;;2.28;;
27383;SDS011;14851;51.166;4.760;2022-11-24T09:28:54;10.32;;;2.58;;
27383;SDS011;14851;51.166;4.760;2022-11-24T09:31:25;12.88;;;3.00;;
27383;SDS011;14851;51.166;4.760;2022-11-24T09:33:54;12.32;;;2.40;;
27383;SDS011;14851;51.166;4.760;2022-11-24T09:36:21;13.45;;;2.72;;
27383;SDS011;14851;51.166;4.760;2022-11-24T09:38:47;14.48;;;2.70;;
27383;SDS011;14851;51.166;4.760;2022-11-24T09:44:11;11.57;;;2.50;;
27383;SDS011;14851;51.166;4.760;2022-11-24T09:47:05;13.10;;;2.70;;
27383;SDS011;14851;51.166;4.760;2022-11-24T09:50:12;8.25;;;2.10;;
27383;SDS011;14851;51.166;4.760;2022-11-24T09:52:48;8.65;;;2.42;;
27383;SDS011;14851;51.166;4.760;2022-11-24T09:55:23;13.77;;;2.60;;
27383;SDS011;14851;51.166;4.760;2022-11-24T09:58:00;15.18;;;3.60;;
27383;SDS011;14851;51.166;4.760;2022-11-24T10:00:42;11.00;;;2.50;;
27383;SDS011;14851;51.166;4.760;2022-11-24T10:03:30;20.05;;;2.60;;
27383;SDS011;14851;51.166;4.760;2022-11-24T10:06:00;14.30;;;2.40;;
27383;SDS011;14851;51.166;4.760;2022-11-24T10:09:14;13.13;;;2.58;;
27383;SDS011;14851;51.166;4.760;2022-11-24T10:11:40;17.48;;;3.08;;
27383;SDS011;14851;51.166;4.760;2022-11-24T10:16:45;10.02;;;2.22;;
27383;SDS011;14851;51.166;4.760;2022-11-24T10:22:16;16.67;;;3.00;;
27383;SDS011;14851;51.166;4.760;2022-11-24T10:27:54;12.48;;;2.80;;
27383;SDS011;14851;51.166;4.760;2022-11-24T10:30:29;12.95;;;2.55;;
27383;SDS011;14851;51.166;4.760;2022-11-24T10:33:02;17.00;;;3.28;;
27383;SDS011;14851;51.166;4.760;2022-11-24T10:38:41;14.50;;;2.90;;
27383;SDS011;14851;51.166;4.760;2022-11-24T10:41:15;13.35;;;2.60;;
27383;SDS011;14851;51.166;4.760;2022-11-24T10:43:48;14.60;;;2.75;;
27383;SDS011;14851;51.166;4.760;2022-11-24T10:46:23;12.98;;;3.00;;
27383;SDS011;14851;51.166;4.760;2022-11-24T10:48:56;15.88;;;3.55;;
27383;SDS011;14851;51.166;4.760;2022-11-24T10:54:28;14.10;;;3.28;;
27383;SDS011;14851;51.166;4.760;2022-11-24T10:56:54;19.02;;;3.17;;
27383;SDS011;14851;51.166;4.760;2022-11-24T11:01:50;15.55;;;2.67;;
27383;SDS011;14851;51.166;4.760;2022-11-24T11:04:19;16.77;;;3.08;;
27383;SDS011;14851;51.166;4.760;2022-11-24T11:06:51;17.73;;;4.53;;
27383;SDS011;14851;51.166;4.760;2022-11-24T11:09:32;19.30;;;4.18;;
27383;SDS011;14851;51.166;4.760;2022-11-24T11:12:07;14.07;;;2.58;;
27383;SDS011;14851;51.166;4.760;2022-11-24T11:15:19;15.60;;;2.70;;
27383;SDS011;14851;51.166;4.760;2022-11-24T11:17:56;18.25;;;3.00;;
27383;SDS011;14851;51.166;4.760;2022-11-24T11:20:30;15.45;;;2.60;;
27383;SDS011;14851;51.166;4.760;2022-11-24T11:22:59;20.00;;;3.70;;
27383;SDS011;14851;51.166;4.760;2022-11-24T11:25:37;16.90;;;3.25;;
27383;SDS011;14851;51.166;4.760;2022-11-24T11:28:22;13.02;;;3.03;;
27383;SDS011;14851;51.166;4.760;2022-11-24T11:31:00;12.88;;;3.28;;
27383;SDS011;14851;51.166;4.760;2022-11-24T11:33:29;13.15;;;3.08;;
27383;SDS011;14851;51.166;4.760;2022-11-24T11:35:57;12.93;;;2.67;;
27383;SDS011;14851;51.166;4.760;2022-11-24T11:38:29;15.65;;;3.78;;
27383;SDS011;14851;51.166;4.760;2022-11-24T11:41:02;19.60;;;3.33;;
27383;SDS011;14851;51.166;4.760;2022-11-24T11:43:36;17.85;;;2.97;;
27383;SDS011;14851;51.166;4.760;2022-11-24T11:46:12;17.13;;;3.67;;
27383;SDS011;14851;51.166;4.760;2022-11-24T11:48:44;17.02;;;3.50;;
27383;SDS011;14851;51.166;4.760;2022-11-24T11:57:25;13.48;;;2.70;;
27383;SDS011;14851;51.166;4.760;2022-11-24T12:00:13;14.32;;;3.10;;
27383;SDS011;14851;51.166;4.760;2022-11-24T12:11:36;16.10;;;3.30;;
27383;SDS011;14851;51.166;4.760;2022-11-24T12:16:59;21.20;;;3.10;;
27383;SDS011;14851;51.166;4.760;2022-11-24T12:22:32;15.05;;;3.20;;
27383;SDS011;14851;51.166;4.760;2022-11-24T12:30:52;20.92;;;3.38;;
27383;SDS011;14851;51.166;4.760;2022-11-24T12:36:02;16.20;;;3.53;;
27383;SDS011;14851;51.166;4.760;2022-11-24T12:52:22;15.60;;;2.78;;
27383;SDS011;14851;51.166;4.760;2022-11-24T12:54:53;14.93;;;2.80;;
27383;SDS011;14851;51.166;4.760;2022-11-24T12:57:29;17.55;;;3.70;;
27383;SDS011;14851;51.166;4.760;2022-11-24T13:00:37;16.73;;;4.07;;
27383;SDS011;14851;51.166;4.760;2022-11-24T13:03:29;17.20;;;3.85;;
27383;SDS011;14851;51.166;4.760;2022-11-24T13:06:04;16.88;;;3.47;;
27383;SDS011;14851;51.166;4.760;2022-11-24T13:08:45;17.00;;;2.97;;
27383;SDS011;14851;51.166;4.760;2022-11-24T13:16:26;12.27;;;3.03;;
27383;SDS011;14851;51.166;4.760;2022-11-24T13:18:59;14.07;;;2.83;;
27383;SDS011;14851;51.166;4.760;2022-11-24T13:26:50;14.10;;;2.65;;
27383;SDS011;14851;51.166;4.760;2022-11-24T13:29:32;12.98;;;2.45;;
27383;SDS011;14851;51.166;4.760;2022-11-24T13:39:56;14.50;;;3.10;;
27383;SDS011;14851;51.166;4.760;2022-11-24T13:42:24;15.88;;;2.70;;
27383;SDS011;14851;51.166;4.760;2022-11-24T13:44:56;16.00;;;3.40;;
27383;SDS011;14851;51.166;4.760;2022-11-24T13:50:14;14.70;;;3.05;;
27383;SDS011;14851;51.166;4.760;2022-11-24T13:52:56;23.73;;;11.27;;
27383;SDS011;14851;51.166;4.760;2022-11-24T13:55:34;18.75;;;4.75;;
27383;SDS011;14851;51.166;4.760;2022-11-24T14:03:27;21.92;;;8.60;;
27383;SDS011;14851;51.166;4.760;2022-11-24T14:05:56;26.58;;;8.43;;
27383;SDS011;14851;51.166;4.760;2022-11-24T14:08:24;23.50;;;7.88;;
27383;SDS011;14851;51.166;4.760;2022-11-24T14:10:53;25.77;;;7.77;;
27383;SDS011;14851;51.166;4.760;2022-11-24T14:13:27;18.95;;;5.07;;
27383;SDS011;14851;51.166;4.760;2022-11-24T14:18:34;16.52;;;4.00;;
27383;SDS011;14851;51.166;4.760;2022-11-24T14:21:16;14.85;;;4.07;;
27383;SDS011;14851;51.166;4.760;2022-11-24T14:23:53;18.92;;;3.42;;
27383;SDS011;14851;51.166;4.760;2022-11-24T14:26:36;12.82;;;2.85;;
27383;SDS011;14851;51.166;4.760;2022-11-24T14:29:06;17.48;;;5.85;;
27383;SDS011;14851;51.166;4.760;2022-11-24T14:31:35;18.63;;;3.10;;
27383;SDS011;14851;51.166;4.760;2022-11-24T14:36:36;22.10;;;3.33;;
27383;SDS011;14851;51.166;4.760;2022-11-24T14:39:05;20.47;;;3.13;;
27383;SDS011;14851;51.166;4.760;2022-11-24T14:41:37;14.65;;;3.47;;
27383;SDS011;14851;51.166;4.760;2022-11-24T14:44:41;17.25;;;3.38;;
27383;SDS011;14851;51.166;4.760;2022-11-24T14:47:03;21.98;;;7.20;;
27383;SDS011;14851;51.166;4.760;2022-11-24T14:49:32;19.13;;;3.78;;
27383;SDS011;14851;51.166;4.760;2022-11-24T14:52:03;19.30;;;3.28;;
27383;SDS011;14851;51.166;4.760;2022-11-24T14:54:55;36.42;;;22.70;;
27383;SDS011;14851;51.166;4.760;2022-11-24T15:02:37;17.85;;;6.18;;
27383;SDS011;14851;51.166;4.760;2022-11-24T15:05:14;16.27;;;5.05;;
27383;SDS011;14851;51.166;4.760;2022-11-24T15:07:42;21.73;;;4.38;;
27383;SDS011;14851;51.166;4.760;2022-11-24T15:10:27;21.80;;;5.90;;
27383;SDS011;14851;51.166;4.760;2022-11-24T15:12:58;17.75;;;4.38;;
27383;SDS011;14851;51.166;4.760;2022-11-24T15:15:31;20.05;;;5.13;;
27383;SDS011;14851;51.166;4.760;2022-11-24T15:18:01;18.50;;;4.07;;
27383;SDS011;14851;51.166;4.760;2022-11-24T15:20:39;15.32;;;3.10;;
27383;SDS011;14851;51.166;4.760;2022-11-24T15:23:12;18.45;;;5.95;;
27383;SDS011;14851;51.166;4.760;2022-11-24T15:25:43;21.10;;;5.20;;
27383;SDS011;14851;51.166;4.760;2022-11-24T15:28:10;15.80;;;3.30;;
27383;SDS011;14851;51.166;4.760;2022-11-24T15:30:37;14.40;;;3.45;;
27383;SDS011;14851;51.166;4.760;2022-11-24T15:33:11;20.50;;;4.10;;
27383;SDS011;14851;51.166;4.760;2022-11-24T15:35:43;17.45;;;3.40;;
27383;SDS011;14851;51.166;4.760;2022-11-24T15:38:11;21.90;;;4.13;;
27383;SDS011;14851;51.166;4.760;2022-11-24T15:40:41;14.75;;;3.78;;
27383;SDS011;14851;51.166;4.760;2022-11-24T15:46:04;22.08;;;7.47;;
27383;SDS011;14851;51.166;4.760;2022-11-24T15:48:30;21.42;;;5.93;;
27383;SDS011;14851;51.166;4.760;2022-11-24T15:50:57;23.00;;;8.38;;
27383;SDS011;14851;51.166;4.760;2022-11-24T15:53:24;18.20;;;5.35;;
27383;SDS011;14851;51.166;4.760;2022-11-24T15:56:05;15.35;;;6.40;;
27383;SDS011;14851;51.166;4.760;2022-11-24T15:58:39;12.35;;;3.15;;
27383;SDS011;14851;51.166;4.760;2022-11-24T16:01:05;22.00;;;4.90;;
27383;SDS011;14851;51.166;4.760;2022-11-24T16:03:31;18.50;;;4.90;;
27383;SDS011;14851;51.166;4.760;2022-11-24T16:05:58;20.02;;;5.50;;
27383;SDS011;14851;51.166;4.760;2022-11-24T16:08:25;19.67;;;5.40;;
27383;SDS011;14851;51.166;4.760;2022-11-24T16:10:51;18.10;;;6.90;;
27383;SDS011;14851;51.166;4.760;2022-11-24T16:13:19;22.52;;;7.35;;
27383;SDS011;14851;51.166;4.760;2022-11-24T16:15:45;20.02;;;7.47;;
27383;SDS011;14851;51.166;4.760;2022-11-24T16:18:13;20.05;;;4.75;;
27383;SDS011;14851;51.166;4.760;2022-11-24T16:20:39;16.33;;;5.18;;
27383;SDS011;14851;51.166;4.760;2022-11-24T16:23:05;16.75;;;4.82;;
27383;SDS011;14851;51.166;4.760;2022-11-24T16:25:31;19.08;;;5.13;;
27383;SDS011;14851;51.166;4.760;2022-11-24T16:27:57;19.38;;;5.75;;
27383;SDS011;14851;51.166;4.760;2022-11-24T16:30:24;16.63;;;5.72;;
27383;SDS011;14851;51.166;4.760;2022-11-24T16:32:50;20.02;;;4.97;;
27383;SDS011;14851;51.166;4.760;2022-11-24T16:35:15;24.67;;;6.75;;
27383;SDS011;14851;51.166;4.760;2022-11-24T16:37:42;17.48;;;4.68;;
27383;SDS011;14851;51.166;4.760;2022-11-24T16:40:09;18.88;;;3.85;;